Time;durP1;ratioP1;P1;durP2;ratioP2;P2;SDS_P1;SDS_P2;PMS_P1;PMS_P2;Temp;Humidity;BMP_temperature;BMP_pressure;BME280_temperature;BME280_humidity;BME280_pressure;Samples;Min_cycle;Max_cycle;Signal;HPM_P1;HPM_P2
2022/04/21 00:00:44;;;;;;;;;;;;;;;16.23;46.23;101363.84;143733;980;47002;-75
2022/04/21 00:03:10;;;;;;;;;;;;;;;16.24;46.31;101360.09;143732;983;47008;-76
2022/04/21 00:05:36;;;;;;;;;;;;;;;16.21;46.77;101364.06;143734;982;47000;-76
2022/04/21 00:08:03;;;;;;;;;;;;;;;16.15;46.54;101356.81;143730;973;47010;-75
2022/04/21 00:10:30;;;;;;;;;;;;;;;16.11;46.02;101355.59;143731;980;47002;-75
2022/04/21 00:12:56;;;;;;;;;;;;;;;16.12;46.32;101354.53;143732;984;46009;-75
2022/04/21 00:15:23;;;;;;;;;;;;;;;16.15;46.20;101362.25;143734;981;47000;-76
2022/04/21 00:17:49;;;;;;;;;;;;;;;16.12;46.25;101357.25;143733;973;46027;-76
2022/04/21 00:20:15;;;;;;;;;;;;;;;16.01;47.66;101358.78;143733;980;47002;-76
2022/04/21 00:25:28;;;;;;;;;;;;;;;16.01;46.95;101344.41;143735;982;46008;-75
2022/04/21 00:27:57;;;;;;;;;;;;;;;16.00;47.12;101346.28;143733;981;47011;-76
2022/04/21 00:30:23;;;;;;;;;;;;;;;15.99;47.05;101352.75;143732;979;47002;-76
2022/04/21 00:32:50;;;;;;;;;;;;;;;15.96;46.99;101361.34;143731;984;47008;-76
2022/04/21 00:35:16;;;;;;;;;;;;;;;15.95;47.26;101356.13;143736;982;46009;-75
2022/04/21 00:37:49;;;;;;;;;;;;;;;15.97;46.95;101364.88;143732;974;47010;-76
2022/04/21 00:40:16;;;;;;;;;;;;;;;16.06;46.41;101374.41;143732;980;47010;-75
2022/04/21 00:42:42;;;;;;;;;;;;;;;16.10;46.75;101367.47;143733;984;47008;-76
2022/04/21 00:45:09;;;;;;;;;;;;;;;16.14;46.35;101374.12;143733;982;47000;-76
2022/04/21 00:47:35;;;;;;;;;;;;;;;16.15;45.79;101364.94;143731;982;47939;-75
2022/04/21 00:50:02;;;;;;;;;;;;;;;16.11;46.65;101360.19;143730;980;47002;-76
2022/04/21 00:52:28;;;;;;;;;;;;;;;16.05;47.13;101367.31;143732;984;46935;-76
2022/04/21 00:54:54;;;;;;;;;;;;;;;16.01;47.78;101357.97;143733;982;47000;-76
2022/04/21 00:57:20;;;;;;;;;;;;;;;15.95;47.53;101356.97;143732;982;47010;-76
2022/04/21 00:59:46;;;;;;;;;;;;;;;15.91;47.94;101356.56;143731;979;47002;-76
2022/04/21 01:04:57;;;;;;;;;;;;;;;15.88;47.99;101362.44;143734;982;46012;-76
2022/04/21 01:07:23;;;;;;;;;;;;;;;15.86;48.55;101369.09;143733;981;47010;-76
2022/04/21 01:09:49;;;;;;;;;;;;;;;15.82;48.07;101360.56;143732;980;47002;-76
2022/04/21 01:12:15;;;;;;;;;;;;;;;15.80;48.52;101359.09;143733;984;46009;-75
2022/04/21 01:14:41;;;;;;;;;;;;;;;15.75;48.97;101359.75;143732;981;47000;-76
2022/04/21 01:17:07;;;;;;;;;;;;;;;15.75;49.08;101366.03;143733;975;47010;-76
2022/04/21 01:19:33;;;;;;;;;;;;;;;15.75;48.67;101349.78;143731;980;47003;-75
2022/04/21 01:21:59;;;;;;;;;;;;;;;15.72;48.73;101352.06;143734;984;46008;-75
2022/04/21 01:24:26;;;;;;;;;;;;;;;15.66;49.24;101351.06;143733;982;47000;-75
2022/04/21 01:26:53;;;;;;;;;;;;;;;15.65;49.09;101351.28;143730;982;47011;-76
2022/04/21 01:29:19;;;;;;;;;;;;;;;15.68;48.25;101365.22;143733;979;47002;-76
2022/04/21 01:31:45;;;;;;;;;;;;;;;15.68;48.59;101362.50;143731;984;47008;-76
2022/04/21 01:34:11;;;;;;;;;;;;;;;15.65;49.03;101359.41;143732;982;47000;-76
2022/04/21 01:41:08;;;;;;;;;;;;;;;15.67;48.56;101360.03;143732;981;46010;-75
2022/04/21 01:42:07;;;;;;;;;;;;;;;15.47;49.21;101358.25;143731;984;47000;-75
2022/04/21 01:44:32;;;;;;;;;;;;;;;15.38;49.11;101359.53;143734;982;47000;-75
2022/04/21 01:46:58;;;;;;;;;;;;;;;15.32;49.20;101358.50;143733;982;46010;-75
2022/04/21 01:49:25;;;;;;;;;;;;;;;15.30;49.29;101353.31;143730;980;47002;-75
2022/04/21 01:51:50;;;;;;;;;;;;;;;15.33;49.45;101362.06;143732;982;47008;-75
2022/04/21 01:54:16;;;;;;;;;;;;;;;15.34;49.39;101361.84;143734;982;47000;-75
2022/04/21 01:56:42;;;;;;;;;;;;;;;15.38;50.00;101367.66;143734;972;47010;-75
2022/04/21 01:59:08;;;;;;;;;;;;;;;15.39;49.11;101355.78;143730;979;47002;-75
2022/04/21 02:01:34;;;;;;;;;;;;;;;15.37;49.26;101365.97;143730;984;47008;-75
2022/04/21 02:04:00;;;;;;;;;;;;;;;15.40;48.44;101357.44;143733;982;47000;-75
2022/04/21 02:06:26;;;;;;;;;;;;;;;15.36;49.30;101348.06;143733;981;46010;-76
2022/04/21 02:08:52;;;;;;;;;;;;;;;15.32;48.78;101350.38;143730;980;47002;-76
2022/04/21 02:11:18;;;;;;;;;;;;;;;15.33;49.21;101343.13;143731;984;46935;-76
2022/04/21 02:13:43;;;;;;;;;;;;;;;15.33;48.66;101343.94;143735;981;46008;-76
2022/04/21 02:16:09;;;;;;;;;;;;;;;15.26;49.56;101345.84;143732;982;46010;-75
2022/04/21 02:18:35;;;;;;;;;;;;;;;15.29;49.41;101351.66;143731;980;47002;-75
2022/04/21 02:21:01;;;;;;;;;;;;;;;15.29;49.24;101340.00;143733;983;46008;-75
2022/04/21 02:23:27;;;;;;;;;;;;;;;15.33;48.63;101345.81;143734;982;47000;-76
2022/04/21 02:25:53;;;;;;;;;;;;;;;15.36;48.94;101342.66;143730;982;47010;-76
2022/04/21 02:28:21;;;;;;;;;;;;;;;15.37;48.48;101341.63;143725;986;49002;-76
2022/04/21 02:30:47;;;;;;;;;;;;;;;15.29;48.90;101337.28;143729;984;47008;-76
2022/04/21 02:33:13;;;;;;;;;;;;;;;15.27;48.78;101345.63;143735;982;47000;-75
2022/04/21 02:35:38;;;;;;;;;;;;;;;15.27;49.02;101342.91;143732;981;46010;-76
2022/04/21 02:38:05;;;;;;;;;;;;;;;15.25;49.43;101328.78;143730;980;47002;-76
2022/04/21 02:40:31;;;;;;;;;;;;;;;15.22;49.60;101326.50;143733;984;47009;-76
2022/04/21 02:42:56;;;;;;;;;;;;;;;15.22;49.64;101333.78;143733;981;47000;-76
2022/04/21 02:45:23;;;;;;;;;;;;;;;15.25;49.23;101333.38;143732;975;47010;-75
2022/04/21 02:47:49;;;;;;;;;;;;;;;15.10;48.83;101342.56;143731;977;47002;-75
2022/04/21 02:50:16;;;;;;;;;;;;;;;14.98;49.38;101337.00;143732;982;47008;-76
2022/04/21 02:52:42;;;;;;;;;;;;;;;15.13;49.12;101334.00;143733;982;47000;-75
2022/04/21 02:57:53;;;;;;;;;;;;;;;15.30;48.50;101344.34;143729;979;47006;-76
2022/04/21 03:00:19;;;;;;;;;;;;;;;15.36;49.03;101356.19;143733;983;46008;-76
2022/04/21 03:02:45;;;;;;;;;;;;;;;15.35;48.74;101359.97;143731;982;47000;-76
2022/04/21 03:05:11;;;;;;;;;;;;;;;15.37;48.07;101363.28;143732;980;46011;-76
2022/04/21 03:07:38;;;;;;;;;;;;;;;15.40;48.78;101357.44;143732;980;47002;-76
2022/04/21 03:10:05;;;;;;;;;;;;;;;15.36;49.17;101346.22;143733;981;46935;-76
2022/04/21 03:12:31;;;;;;;;;;;;;;;15.29;49.76;101338.13;143733;980;47000;-76
2022/04/21 03:14:57;;;;;;;;;;;;;;;15.29;49.62;101340.00;143733;976;46024;-75
2022/04/21 03:17:23;;;;;;;;;;;;;;;15.24;48.77;101335.22;143733;980;47002;-75
2022/04/21 03:19:49;;;;;;;;;;;;;;;15.23;49.08;101335.47;143730;983;47004;-76
2022/04/21 03:24:59;;;;;;;;;;;;;;;15.23;49.50;101338.16;143733;982;46937;-76
2022/04/21 03:27:29;;;;;;;;;;;;;;;15.23;49.49;101332.75;143730;979;47002;-75
2022/04/21 03:29:58;;;;;;;;;;;;;;;15.20;49.42;101316.94;143731;984;46008;-76
2022/04/21 03:32:25;;;;;;;;;;;;;;;15.20;49.53;101327.75;143732;982;47000;-75
2022/04/21 03:34:53;;;;;;;;;;;;;;;15.19;49.76;101329.63;143732;981;46011;-77
2022/04/21 03:37:20;;;;;;;;;;;;;;;15.21;49.90;101332.13;143731;980;47002;-73
2022/04/21 03:39:46;;;;;;;;;;;;;;;15.20;49.76;101336.69;143734;984;47008;-74
2022/04/21 03:42:32;;;;;;;;;;;;;;;15.18;49.52;101338.78;143735;981;47000;-72
2022/04/21 03:44:59;;;;;;;;;;;;;;;15.20;49.72;101336.69;143734;982;46010;-76
2022/04/21 03:47:25;;;;;;;;;;;;;;;15.19;49.59;101337.75;143729;980;47002;-75
2022/04/21 03:49:51;;;;;;;;;;;;;;;15.16;49.72;101332.78;143732;983;46008;-76
2022/04/21 03:52:20;;;;;;;;;;;;;;;15.15;49.66;101341.94;143732;982;47000;-75
2022/04/21 03:54:46;;;;;;;;;;;;;;;15.13;49.76;101354.84;143732;982;47010;-75
2022/04/21 03:57:12;;;;;;;;;;;;;;;15.10;50.08;101360.69;143732;979;47002;-75
2022/04/21 03:59:38;;;;;;;;;;;;;;;15.07;50.19;101361.09;143731;984;47935;-75
2022/04/21 04:02:04;;;;;;;;;;;;;;;15.00;49.64;101364.66;143734;982;47000;-75
2022/04/21 04:04:31;;;;;;;;;;;;;;;15.04;49.69;101366.94;143733;974;46024;-75
2022/04/21 04:12:29;;;;;;;;;;;;;;;15.03;50.42;101368.81;143733;979;47008;-75
2022/04/21 04:14:55;;;;;;;;;;;;;;;15.08;50.18;101373.59;143733;982;47002;-75
2022/04/21 04:17:21;;;;;;;;;;;;;;;15.09;49.89;101378.78;143731;980;47002;-75
2022/04/21 04:19:47;;;;;;;;;;;;;;;15.12;50.31;101375.66;143732;983;47008;-74
2022/04/21 04:22:14;;;;;;;;;;;;;;;15.16;49.72;101374.19;143733;982;47000;-75
2022/04/21 04:24:40;;;;;;;;;;;;;;;15.17;49.98;101372.31;143733;982;46011;-74
2022/04/21 04:27:06;;;;;;;;;;;;;;;15.20;50.29;101379.19;143731;979;47002;-74
2022/04/21 04:29:32;;;;;;;;;;;;;;;15.19;49.89;101383.75;143730;984;47008;-74
2022/04/21 04:32:00;;;;;;;;;;;;;;;15.24;49.51;101383.94;143726;982;50000;-75
2022/04/21 04:34:26;;;;;;;;;;;;;;;15.24;50.11;101386.66;143729;981;47010;-75
2022/04/21 04:36:52;;;;;;;;;;;;;;;15.26;50.20;101398.09;143731;980;47002;-74
2022/04/21 04:39:18;;;;;;;;;;;;;;;15.31;50.27;101408.28;143733;984;46008;-74
2022/04/21 04:44:28;;;;;;;;;;;;;;;15.48;49.84;101418.62;143731;982;46010;-74
2022/04/21 04:46:54;;;;;;;;;;;;;;;15.53;49.81;101411.50;143732;980;47002;-75
2022/04/21 04:49:20;;;;;;;;;;;;;;;15.54;50.56;101410.47;143732;983;46935;-75
2022/04/21 04:51:46;;;;;;;;;;;;;;;15.60;50.33;101416.94;143735;982;46008;-75
2022/04/21 04:54:13;;;;;;;;;;;;;;;15.70;50.18;101413.75;143731;982;47010;-74
2022/04/21 04:56:39;;;;;;;;;;;;;;;15.79;50.04;101411.62;143732;979;47002;-74
2022/04/21 04:59:06;;;;;;;;;;;;;;;15.91;49.43;101415.34;143733;984;46008;-75
2022/04/21 05:01:39;;;;;;;;;;;;;;;16.03;49.14;101424.44;143735;982;46008;-74
2022/04/21 05:04:06;;;;;;;;;;;;;;;16.15;48.99;101421.03;143730;981;47011;-75
2022/04/21 05:06:35;;;;;;;;;;;;;;;16.25;49.33;101417.81;143731;980;47002;-74
2022/04/21 05:09:02;;;;;;;;;;;;;;;16.35;49.72;101432.56;143732;984;47008;-74
2022/04/21 05:11:28;;;;;;;;;;;;;;;16.43;48.92;101447.72;143731;981;47000;-75
2022/04/21 05:13:54;;;;;;;;;;;;;;;16.54;49.07;101445.38;143733;982;46010;-74
2022/04/21 05:16:20;;;;;;;;;;;;;;;16.62;49.49;101440.50;143733;980;47002;-73
2022/04/21 05:18:46;;;;;;;;;;;;;;;16.71;49.29;101442.91;143731;983;46008;-74
2022/04/21 05:21:12;;;;;;;;;;;;;;;16.77;50.03;101440.13;143734;982;47000;-74
2022/04/21 05:23:39;;;;;;;;;;;;;;;16.80;49.79;101433.47;143730;982;47010;-74
2022/04/21 05:26:05;;;;;;;;;;;;;;;16.86;50.51;101439.88;143732;979;47002;-74
2022/04/21 05:28:31;;;;;;;;;;;;;;;16.91;49.57;101437.31;143732;984;46008;-74
2022/04/21 05:31:01;;;;;;;;;;;;;;;16.92;50.61;101434.38;143732;982;47000;-74
2022/04/21 05:33:28;;;;;;;;;;;;;;;16.94;49.97;101432.28;143732;981;46011;-74
2022/04/21 05:35:55;;;;;;;;;;;;;;;17.01;49.98;101426.00;143733;979;47002;-74
2022/04/21 05:38:21;;;;;;;;;;;;;;;17.04;49.82;101418.22;143732;984;46935;-74
2022/04/21 05:40:48;;;;;;;;;;;;;;;17.11;49.58;101404.59;143734;982;47000;-74
2022/04/21 05:43:16;;;;;;;;;;;;;;;17.14;48.85;101401.41;143732;982;47010;-75
2022/04/21 05:45:43;;;;;;;;;;;;;;;17.18;49.33;101399.91;143731;980;47002;-75
2022/04/21 05:48:09;;;;;;;;;;;;;;;17.23;49.27;101410.91;143732;984;46009;-75
2022/04/21 05:50:35;;;;;;;;;;;;;;;17.33;49.14;101407.66;143734;982;47000;-74
2022/04/21 05:53:04;;;;;;;;;;;;;;;17.46;49.08;101409.41;143732;982;47002;-74
2022/04/21 05:55:30;;;;;;;;;;;;;;;17.51;48.16;101406.84;143731;980;47010;-74
2022/04/21 05:57:56;;;;;;;;;;;;;;;17.58;47.95;101401.31;143733;984;47008;-74
2022/04/21 06:00:22;;;;;;;;;;;;;;;17.60;47.59;101399.19;143733;982;47000;-75
2022/04/21 06:02:48;;;;;;;;;;;;;;;17.63;47.80;101406.06;143732;982;46011;-74
2022/04/21 06:05:14;;;;;;;;;;;;;;;17.69;48.01;101419.53;143731;979;47010;-75
2022/04/21 06:07:40;;;;;;;;;;;;;;;17.72;47.86;101418.28;143732;985;47008;-76
2022/04/21 06:10:06;;;;;;;;;;;;;;;17.71;46.51;101411.19;143734;980;47000;-76
2022/04/21 06:12:34;;;;;;;;;;;;;;;17.75;47.56;101412.38;143733;981;47010;-75
2022/04/21 06:15:00;;;;;;;;;;;;;;;17.77;47.42;101414.88;143730;980;47002;-75
2022/04/21 06:17:26;;;;;;;;;;;;;;;17.79;47.44;101413.56;143733;984;46009;-75
2022/04/21 06:19:52;;;;;;;;;;;;;;;17.82;47.46;101418.53;143735;981;47000;-76
2022/04/21 06:22:18;;;;;;;;;;;;;;;17.75;47.86;101422.41;143733;982;46010;-76
2022/04/21 06:24:44;;;;;;;;;;;;;;;17.66;48.30;101427.34;143730;980;47002;-74
2022/04/21 06:27:10;;;;;;;;;;;;;;;17.57;47.53;101432.25;143733;984;46008;-74
2022/04/21 06:29:36;;;;;;;;;;;;;;;17.72;47.63;101429.16;143733;982;47000;-74
2022/04/21 06:32:01;;;;;;;;;;;;;;;17.85;47.40;101436.28;143733;970;46030;-73
2022/04/21 06:34:27;;;;;;;;;;;;;;;17.90;47.13;101454.63;143730;979;47002;-73
2022/04/21 06:36:53;;;;;;;;;;;;;;;17.96;46.73;101446.38;143732;986;47925;-71
2022/04/21 06:39:19;;;;;;;;;;;;;;;18.07;46.51;101466.53;143732;984;47002;-71
2022/04/21 06:41:45;;;;;;;;;;;;;;;18.12;45.47;101454.97;143732;983;47004;-71
2022/04/21 06:49:38;;;;;;;;;;;;;;;18.09;45.13;101456.25;143736;974;46026;-72
2022/04/21 06:52:05;;;;;;;;;;;;;;;18.01;45.45;101449.25;143734;984;46012;-72
2022/04/21 06:54:30;;;;;;;;;;;;;;;18.05;45.17;101446.06;143732;979;47004;-72
2022/04/21 06:56:56;;;;;;;;;;;;;;;18.17;45.02;101444.25;143733;985;47010;-78
2022/04/21 06:59:22;;;;;;;;;;;;;;;18.25;44.66;101445.81;143732;980;47002;-77
2022/04/21 07:01:48;;;;;;;;;;;;;;;18.28;43.81;101456.19;143732;984;47012;-76
2022/04/21 07:04:15;;;;;;;;;;;;;;;18.30;43.54;101456.78;143733;979;47004;-75
2022/04/21 07:06:41;;;;;;;;;;;;;;;18.38;43.52;101469.22;143730;984;47010;-75
2022/04/21 07:09:07;;;;;;;;;;;;;;;18.44;43.92;101476.47;143734;984;47002;-75
2022/04/21 07:11:33;;;;;;;;;;;;;;;18.54;43.28;101467.72;143731;983;47012;-74
2022/04/21 07:13:59;;;;;;;;;;;;;;;18.57;43.41;101456.38;143730;980;47004;-75
2022/04/21 07:16:25;;;;;;;;;;;;;;;18.58;42.51;101455.31;143734;982;46011;-75
2022/04/21 07:18:51;;;;;;;;;;;;;;;18.65;43.41;101442.41;143733;983;47002;-74
2022/04/21 07:21:17;;;;;;;;;;;;;;;18.69;43.54;101430.00;143731;984;47012;-74
2022/04/21 07:23:43;;;;;;;;;;;;;;;18.77;44.73;101426.09;143732;980;47004;-74
2022/04/21 07:26:09;;;;;;;;;;;;;;;18.83;43.83;101418.88;143732;985;47010;-74
2022/04/21 07:28:35;;;;;;;;;;;;;;;18.87;43.63;101414.62;143733;984;47002;-74
2022/04/21 07:31:01;;;;;;;;;;;;;;;18.90;43.40;101409.53;143733;984;46013;-74
2022/04/21 07:33:26;;;;;;;;;;;;;;;18.95;42.38;101414.31;143733;979;47004;-74
2022/04/21 07:35:52;;;;;;;;;;;;;;;18.83;42.77;101421.59;143733;986;46010;-74
2022/04/21 07:38:18;;;;;;;;;;;;;;;18.83;42.49;101417.00;143733;984;47002;-74
2022/04/21 07:40:47;;;;;;;;;;;;;;;18.92;41.34;101415.56;143730;983;47012;-75
2022/04/21 07:43:13;;;;;;;;;;;;;;;19.02;41.94;101417.72;143732;980;47004;-75
2022/04/21 07:45:41;;;;;;;;;;;;;;;19.04;41.35;101407.44;143732;986;47010;-76
2022/04/21 07:48:07;;;;;;;;;;;;;;;19.02;41.77;101411.47;143733;983;47002;-75
2022/04/21 07:50:33;;;;;;;;;;;;;;;19.02;41.28;101416.91;143732;984;46012;-76
2022/04/21 07:53:14;;;;;;;;;;;;;;;19.06;41.27;101418.91;143731;980;47004;-76
2022/04/21 07:55:44;;;;;;;;;;;;;;;19.16;41.55;101410.16;143733;985;46010;-77
2022/04/21 07:58:10;;;;;;;;;;;;;;;19.22;40.99;101411.91;143734;984;47012;-75
2022/04/21 08:00:38;;;;;;;;;;;;;;;19.29;41.05;101414.50;143733;968;46032;-73
2022/04/21 08:03:07;;;;;;;;;;;;;;;19.38;40.90;101407.59;143734;979;46004;-78
2022/04/21 08:05:33;;;;;;;;;;;;;;;19.53;40.66;101415.28;143734;983;47010;-77
2022/04/21 08:07:59;;;;;;;;;;;;;;;19.60;40.38;101406.09;143733;984;47002;-77
2022/04/21 08:10:28;;;;;;;;;;;;;;;19.71;39.45;101399.81;143732;983;46013;-78
2022/04/21 08:12:54;;;;;;;;;;;;;;;19.77;39.67;101396.09;143730;980;47004;-77
2022/04/21 08:15:27;;;;;;;;;;;;;;;19.74;39.68;101402.06;143732;986;47010;-78
2022/04/21 08:17:57;;;;;;;;;;;;;;;19.69;39.97;101408.19;143732;983;47002;-77
2022/04/21 08:20:24;;;;;;;;;;;;;;;19.67;39.52;101407.66;143733;971;47012;-75
2022/04/21 08:22:50;;;;;;;;;;;;;;;19.68;39.59;101422.09;143732;980;47004;-75
2022/04/21 08:33:38;;;;;;;;;;;;;;;19.44;38.86;101459.47;143733;979;47012;-74
2022/04/21 08:36:05;;;;;;;;;;;;;;;19.52;37.72;101462.66;143729;985;47010;-74
2022/04/21 08:38:31;;;;;;;;;;;;;;;19.57;37.62;101459.19;143732;982;47002;-73
2022/04/21 08:41:03;;;;;;;;;;;;;;;19.71;37.71;101473.38;143733;973;47010;-72
2022/04/21 08:43:29;;;;;;;;;;;;;;;19.85;36.93;101463.84;143731;980;47002;-74
2022/04/21 08:45:56;;;;;;;;;;;;;;;19.79;36.93;101477.63;143729;970;48000;-74
2022/04/21 08:48:23;;;;;;;;;;;;;;;19.85;36.12;101477.50;143733;972;47000;-73
2022/04/21 08:50:49;;;;;;;;;;;;;;;19.75;35.87;101462.81;143733;984;47010;-74
2022/04/21 08:53:16;;;;;;;;;;;;;;;19.60;36.34;101471.50;143732;980;47003;-73
2022/04/21 08:55:44;;;;;;;;;;;;;;;19.59;36.86;101475.31;143732;985;47008;-73
2022/04/21 08:58:11;;;;;;;;;;;;;;;19.69;37.11;101470.87;143733;984;47000;-72
2022/04/21 09:00:37;;;;;;;;;;;;;;;19.75;36.95;101471.00;143731;983;47011;-75
2022/04/21 09:03:04;;;;;;;;;;;;;;;19.82;37.57;101466.25;143730;979;47002;-76
2022/04/21 09:05:31;;;;;;;;;;;;;;;19.89;36.58;101471.59;143733;985;46008;-76
2022/04/21 09:07:57;;;;;;;;;;;;;;;19.90;35.36;101462.34;143733;984;47000;-82
2022/04/21 09:10:24;;;;;;;;;;;;;;;19.87;35.68;101466.34;143731;983;47010;-79
2022/04/21 09:12:52;;;;;;;;;;;;;;;19.90;35.15;101465.06;143731;980;47002;-77
2022/04/21 09:15:19;;;;;;;;;;;;;;;19.91;35.20;101458.53;143733;985;46009;-74
2022/04/21 09:17:47;;;;;;;;;;;;;;;20.09;35.08;101463.81;143734;983;47000;-75
2022/04/21 09:20:14;;;;;;;;;;;;;;;20.28;35.66;101453.50;143733;970;46030;-76
2022/04/21 09:22:41;;;;;;;;;;;;;;;20.36;35.97;101457.72;143730;980;47002;-76
2022/04/21 09:25:08;;;;;;;;;;;;;;;20.47;36.12;101464.19;143731;985;46933;-74
2022/04/21 09:27:41;;;;;;;;;;;;;;;20.50;35.70;101452.78;143733;984;47000;-76
2022/04/21 09:30:12;;;;;;;;;;;;;;;20.58;35.79;101444.16;143731;984;46011;-78
2022/04/21 09:32:39;;;;;;;;;;;;;;;20.70;35.75;101456.91;143731;979;47002;-77
2022/04/21 09:35:06;;;;;;;;;;;;;;;20.67;35.34;101450.03;143733;986;47008;-76
2022/04/21 09:37:33;;;;;;;;;;;;;;;20.70;36.49;101454.19;143733;984;47013;-79
2022/04/21 09:40:01;;;;;;;;;;;;;;;20.82;35.77;101452.22;143733;976;46935;-82
2022/04/21 09:42:28;;;;;;;;;;;;;;;20.75;35.26;101448.78;143730;980;47002;-78
2022/04/21 09:47:50;;;;;;;;;;;;;;;20.78;35.69;101453.78;143735;983;46008;-80
2022/04/21 09:50:17;;;;;;;;;;;;;;;20.77;36.46;101456.78;143731;984;47010;-79
2022/04/21 09:52:46;;;;;;;;;;;;;;;20.60;37.03;101460.31;143731;980;47002;-80
2022/04/21 09:55:26;;;;;;;;;;;;;;;20.35;38.48;101447.88;143731;985;47008;-79
2022/04/21 09:58:12;;;;;;;;;;;;;;;20.42;38.35;101453.16;143734;969;47000;-78
2022/04/21 10:00:39;;;;;;;;;;;;;;;20.43;38.27;101454.81;143731;977;47010;-81
2022/04/21 10:03:05;;;;;;;;;;;;;;;20.34;38.02;101461.78;143732;977;47002;-78
2022/04/21 10:05:32;;;;;;;;;;;;;;;20.36;38.16;101456.91;143733;986;46008;-78
2022/04/21 10:08:01;;;;;;;;;;;;;;;20.35;38.25;101457.97;143733;984;47000;-79
2022/04/21 10:10:31;;;;;;;;;;;;;;;20.38;38.26;101458.28;143734;972;46027;-79
2022/04/21 10:12:57;;;;;;;;;;;;;;;20.41;38.56;101451.50;143730;980;47002;-78
2022/04/21 10:15:24;;;;;;;;;;;;;;;20.50;38.55;101443.75;143732;985;46933;-80
2022/04/21 10:17:50;;;;;;;;;;;;;;;20.62;38.61;101435.47;143732;984;47000;-79
2022/04/21 10:20:16;;;;;;;;;;;;;;;20.51;38.55;101443.50;143732;984;46010;-78
2022/04/21 10:22:42;;;;;;;;;;;;;;;20.56;38.73;101442.75;143730;980;47002;-80
2022/04/21 10:25:09;;;;;;;;;;;;;;;20.52;38.67;101445.16;143731;984;46008;-78
2022/04/21 10:27:35;;;;;;;;;;;;;;;20.60;38.96;101439.28;143733;984;47000;-81
2022/04/21 10:30:01;;;;;;;;;;;;;;;20.51;38.85;101429.87;143730;984;47002;-76
2022/04/21 10:33:05;;;;;;;;;;;;;;;20.63;39.97;101445.31;143732;979;47002;-72
2022/04/21 10:35:52;;;;;;;;;;;;;;;20.74;39.75;101442.50;143734;986;46008;-73
2022/04/21 10:38:18;;;;;;;;;;;;;;;20.66;39.49;101451.09;143733;984;47000;-72
2022/04/21 10:40:57;;;;;;;;;;;;;;;20.73;40.03;101448.22;143731;984;47010;-72
2022/04/21 10:43:24;;;;;;;;;;;;;;;20.88;39.34;101453.94;143731;980;47002;-73
2022/04/21 10:46:05;;;;;;;;;;;;;;;20.93;38.73;101438.69;143732;984;47008;-73
2022/04/21 10:48:43;;;;;;;;;;;;;;;21.04;38.17;101443.25;143732;984;47000;-71
2022/04/21 10:51:13;;;;;;;;;;;;;;;21.08;38.97;101447.13;143733;984;46010;-73
2022/04/21 10:59:29;;;;;;;;;;;;;;;21.15;38.92;101446.94;143732;984;47000;-71
2022/04/21 11:01:55;;;;;;;;;;;;;;;21.00;39.53;101450.28;143732;981;47011;-69
2022/04/21 11:04:22;;;;;;;;;;;;;;;20.86;39.93;101456.09;143733;980;46010;-70
2022/04/21 11:06:50;;;;;;;;;;;;;;;20.97;39.21;101458.97;143729;985;47008;-70
2022/04/21 11:09:35;;;;;;;;;;;;;;;21.01;39.62;101450.03;143733;983;47000;-70
2022/04/21 11:12:01;;;;;;;;;;;;;;;21.18;38.96;101457.37;143732;982;46010;-72
2022/04/21 11:14:27;;;;;;;;;;;;;;;21.27;39.54;101460.50;143733;980;47003;-70
2022/04/21 11:16:53;;;;;;;;;;;;;;;21.37;40.15;101452.44;143732;985;47008;-71
2022/04/21 11:19:35;;;;;;;;;;;;;;;21.43;39.06;101453.31;143733;984;47000;-71
2022/04/21 11:22:05;;;;;;;;;;;;;;;21.27;39.83;101449.56;143732;984;46011;-71
2022/04/21 11:24:50;;;;;;;;;;;;;;;21.21;38.84;101440.47;143730;979;47002;-71
2022/04/21 11:27:16;;;;;;;;;;;;;;;21.20;37.64;101430.59;143733;985;46012;-71
2022/04/21 11:29:42;;;;;;;;;;;;;;;21.07;37.45;101436.44;143735;984;47000;-71
2022/04/21 11:32:08;;;;;;;;;;;;;;;20.93;38.04;101435.97;143733;983;46010;-71
2022/04/21 11:34:34;;;;;;;;;;;;;;;20.79;37.75;101430.03;143733;980;47002;-71
2022/04/21 11:37:02;;;;;;;;;;;;;;;20.80;38.53;101432.50;143734;977;47009;-71
2022/04/21 11:39:29;;;;;;;;;;;;;;;20.96;38.21;101430.84;143732;983;47000;-72
2022/04/21 11:41:56;;;;;;;;;;;;;;;21.05;38.08;101428.50;143733;976;47010;-71
2022/04/21 11:44:22;;;;;;;;;;;;;;;21.08;37.40;101429.91;143732;980;47002;-72
2022/04/21 11:46:48;;;;;;;;;;;;;;;21.16;38.57;101429.47;143734;985;46008;-71
2022/04/21 11:49:14;;;;;;;;;;;;;;;21.01;39.03;101424.63;143734;984;47000;-72
2022/04/21 11:51:41;;;;;;;;;;;;;;;21.03;40.37;101417.81;143733;984;46011;-70
2022/04/21 11:54:08;;;;;;;;;;;;;;;21.22;39.49;101414.78;143733;979;47010;-70
2022/04/21 11:56:34;;;;;;;;;;;;;;;21.19;38.72;101413.41;143733;985;47008;-71
2022/04/21 11:59:09;;;;;;;;;;;;;;;21.11;39.54;101413.81;143734;984;47000;-71
2022/04/21 12:07:04;;;;;;;;;;;;;;;21.01;40.55;101410.97;143730;985;47004;-73
2022/04/21 12:09:34;;;;;;;;;;;;;;;21.04;40.13;101408.56;143732;981;47000;-70
2022/04/21 12:12:01;;;;;;;;;;;;;;;20.87;39.80;101405.03;143733;985;46010;-69
2022/04/21 12:14:27;;;;;;;;;;;;;;;20.77;40.43;101413.09;143732;978;47002;-72
2022/04/21 12:16:54;;;;;;;;;;;;;;;20.77;41.62;101400.25;143730;985;46008;-73
2022/04/21 12:19:32;;;;;;;;;;;;;;;20.93;40.75;101398.56;143734;982;46012;-73
2022/04/21 12:22:24;;;;;;;;;;;;;;;20.95;40.86;101398.31;143732;986;46011;-73
2022/04/21 12:24:50;;;;;;;;;;;;;;;20.92;41.87;101394.19;143731;970;47002;-72
2022/04/21 12:27:17;;;;;;;;;;;;;;;21.12;41.81;101395.56;143732;985;47000;-73
2022/04/21 12:30:03;;;;;;;;;;;;;;;21.10;40.36;101393.06;143733;958;47008;-75
2022/04/21 12:32:30;;;;;;;;;;;;;;;20.79;39.55;101394.56;143732;985;46010;-75
2022/04/21 12:34:58;;;;;;;;;;;;;;;20.71;40.63;101391.12;143732;978;47002;-74
2022/04/21 12:37:39;;;;;;;;;;;;;;;20.67;40.36;101387.25;143732;985;46009;-77
2022/04/21 12:40:12;;;;;;;;;;;;;;;20.82;40.68;101391.34;143736;982;46008;-76
2022/04/21 12:42:40;;;;;;;;;;;;;;;20.74;39.45;101379.72;143733;986;47002;-74
2022/04/21 12:45:06;;;;;;;;;;;;;;;20.62;39.07;101384.47;143731;978;47002;-74
2022/04/21 12:47:41;;;;;;;;;;;;;;;20.73;38.85;101375.34;143732;985;47000;-74
2022/04/21 12:50:08;;;;;;;;;;;;;;;20.81;38.70;101387.75;143731;982;47000;-71
2022/04/21 12:52:35;;;;;;;;;;;;;;;20.69;39.44;101387.81;143732;986;46011;-72
2022/04/21 12:55:02;;;;;;;;;;;;;;;20.89;39.33;101394.69;143733;977;47002;-73
2022/04/21 12:57:28;;;;;;;;;;;;;;;21.07;39.16;101385.41;143734;986;46008;-69
2022/04/21 12:59:54;;;;;;;;;;;;;;;20.85;38.11;101391.66;143732;982;47000;-75
2022/04/21 13:02:20;;;;;;;;;;;;;;;20.65;39.45;101394.03;143733;986;46010;-75
2022/04/21 13:04:47;;;;;;;;;;;;;;;20.63;38.96;101388.84;143731;978;47002;-78
2022/04/21 13:07:13;;;;;;;;;;;;;;;20.62;39.28;101383.63;143732;973;47009;-77
2022/04/21 13:09:39;;;;;;;;;;;;;;;20.58;39.55;101394.22;143733;981;47000;-78
2022/04/21 13:12:05;;;;;;;;;;;;;;;20.50;39.89;101387.28;143730;986;47010;-76
2022/04/21 13:14:31;;;;;;;;;;;;;;;20.51;40.13;101383.47;143671;963;53036;-77
2022/04/21 13:16:57;;;;;;;;;;;;;;;20.42;41.01;101387.69;143726;983;47004;-77
2022/04/21 13:19:23;;;;;;;;;;;;;;;20.45;42.01;101390.75;143728;978;47000;-73
2022/04/21 13:21:52;;;;;;;;;;;;;;;20.45;42.23;101385.31;143720;970;47935;-72
2022/04/21 13:24:21;;;;;;;;;;;;;;;20.43;42.52;101378.44;143720;979;47010;-72
2022/04/21 13:26:47;;;;;;;;;;;;;;;20.39;42.68;101383.56;143722;985;47008;-73